Huvudsida
METAR-TAF:

METAR-TAF

Flygplatser :

Valladolid Airport

Valladolid, Spanien

latitud: 41-43N, longitud: 004-51W, höjd: 849 m

Aktuellt väderrapport

Denna rapport gjordes för 7 timmar och 37 minuter sedan, klockan 19:30 UTC
Vind 11 kt från ost/nordost
Temperatur 12°C
Fuktighet 71%
Tryck 1020 hPa
Sikt 10 km eller mer
Få moln på en höjd av 4000 ft

METAR: LEVD 191930Z 06011KT 9999 FEW040 12/07 Q1020

Tid: 05:07 (03:07 UTC)

Väderprognos

Denna rapport gjordes för 4 timmar och 7 minuter sedan, klockan 23:00 UTC
Prognos gäller från 20 kl. 00 UTC till 20 kl. 24 UTC
Vind 12 kt från ost/nordost
Sikt 10 km eller mer
Få moln på en höjd av 4000 ft
Sannolikhet 40% :
Temporärt
från 20 kl. 11 UTC till 20 kl. 16 UTC
Vind 15 kt från ost/nordost i byarna ända upp till 25 kt

TAF: LEVD 192300Z 2000/2024 06012KT 9999 FEW040 TX21/2015Z TN09/2006Z PROB40 TEMPO 2011/2016 07015G25KT

Aktuella väderrapporter och prognoser från 4000 flygplatser (METAR- och TAF-rapporter).

De tillgängliga stationerna syns som gula och röda prickar på kartan.

För musen över prickarna för att se namnen på stationerna.

Klicka sedan för att få väderrapporter och prognoser.

För att ändra kartan: Klicka på de gröna knapparna med ett svart kors på för att zooma in; den gröna knappen med ett streck på för att zooma ut; eller på de gröna pilarna för angränsande kartor.


METAR-TAF: